Hudson, Ohio
Current Conditions -  °F | °C
As of 11:42 AM on Friday 19 Dec 2014 (Local Time) from KPOV Reporting Station
Overcast Overcast  
Wind Chill: 26°   Ceiling: 2600
Heat Index: 30°   Visibility: 10mi
Dew Point: 24°   Wind: 5mph
Humidity: 78%   Direction: 340°NNW
Pressure: 30.2"   Gusts: NA
Location:  41.24°N, 81.44°W
Report Text: KPOV 191642Z AUTO 34004KT 10SM SCT018 OVC026 M01/M04 A3020 RMK AO2 T10091043
Loading
Personal Weather Stations






























Interactive Weather Map New forecast layout! Learn more

10-Day Weather Forecast

Advertisements
Track Severe Weather on mobile